Time;durP1;ratioP1;P1;durP2;ratioP2;P2;SDS_P1;SDS_P2;PMS_P1;PMS_P2;Temp;Humidity;BMP_temperature;BMP_pressure;BME280_temperature;BME280_humidity;BME280_pressure;Samples;Min_cycle;Max_cycle;Signal;HPM_P1;HPM_P2
2021/11/15 00:02:16;;;;;;;70.75;33.22;;;8.20;99.90;;;;;;4992745;28;20122;-55
2021/11/15 00:04:41;;;;;;;68.72;32.95;;;8.20;99.90;;;;;;4992683;28;20042;-54
2021/11/15 00:07:07;;;;;;;69.07;33.20;;;8.10;99.90;;;;;;4992760;28;20112;-55
2021/11/15 00:09:33;;;;;;;70.38;32.53;;;8.10;99.90;;;;;;4992771;28;20056;-55
2021/11/15 00:12:00;;;;;;;69.78;31.80;;;8.10;99.90;;;;;;4993027;28;20054;-54
2021/11/15 00:14:26;;;;;;;67.00;32.40;;;8.10;99.90;;;;;;4992406;28;20066;-55
2021/11/15 00:16:52;;;;;;;69.90;32.97;;;8.10;99.90;;;;;;4992590;28;20042;-54
2021/11/15 00:19:17;;;;;;;69.00;31.90;;;8.10;99.90;;;;;;4992323;28;20038;-55
2021/11/15 00:21:43;;;;;;;70.82;33.50;;;8.10;99.90;;;;;;4994818;28;20035;-54
2021/11/15 00:24:09;;;;;;;67.95;32.63;;;8.10;99.90;;;;;;4995983;28;20384;-55
2021/11/15 00:26:35;;;;;;;68.50;32.63;;;8.10;99.90;;;;;;4995900;28;20467;-55
2021/11/15 00:29:01;;;;;;;69.90;31.55;;;8.00;99.90;;;;;;4995600;28;20077;-54
2021/11/15 00:31:27;;;;;;;65.72;30.75;;;8.10;99.90;;;;;;4995909;28;20070;-55
2021/11/15 00:33:53;;;;;;;70.18;31.55;;;8.00;99.90;;;;;;4995942;28;20068;-54
2021/11/15 00:36:20;;;;;;;68.53;30.95;;;8.00;99.90;;;;;;4995682;28;20503;-53
2021/11/15 00:38:45;;;;;;;69.43;31.33;;;8.00;99.90;;;;;;4995649;28;20034;-54
2021/11/15 00:41:12;;;;;;;71.13;32.50;;;8.00;99.90;;;;;;4995581;28;20472;-55
2021/11/15 00:43:37;;;;;;;66.32;30.88;;;8.00;99.90;;;;;;4994422;28;20490;-55
2021/11/15 00:46:04;;;;;;;64.03;30.75;;;8.00;99.90;;;;;;4995472;28;20042;-54
2021/11/15 00:48:29;;;;;;;64.35;29.75;;;8.00;99.90;;;;;;4995698;28;20127;-54
2021/11/15 00:50:56;;;;;;;62.55;29.95;;;8.00;99.90;;;;;;4995644;28;20133;-54
2021/11/15 00:53:21;;;;;;;62.60;30.60;;;8.00;99.90;;;;;;4995256;28;20468;-53
2021/11/15 00:55:47;;;;;;;63.85;30.60;;;7.90;99.90;;;;;;4995654;28;20066;-55
2021/11/15 00:58:13;;;;;;;60.25;29.88;;;7.90;99.90;;;;;;4995627;28;20046;-54
2021/11/15 01:00:41;;;;;;;64.03;31.45;;;7.90;99.90;;;;;;4995367;28;20769;-53
2021/11/15 01:03:08;;;;;;;64.22;31.02;;;7.90;99.90;;;;;;4995469;28;20046;-55
2021/11/15 01:05:36;;;;;;;67.13;30.58;;;7.90;99.90;;;;;;4995460;28;20042;-54
2021/11/15 01:08:02;;;;;;;56.20;29.52;;;7.90;99.90;;;;;;4995300;28;20038;-55
2021/11/15 01:10:28;;;;;;;55.00;26.77;;;7.90;99.90;;;;;;4994690;28;20047;-54
2021/11/15 01:12:54;;;;;;;58.00;26.65;;;7.90;99.90;;;;;;4993969;28;20135;-54
2021/11/15 01:15:23;;;;;;;53.13;26.55;;;7.90;99.90;;;;;;4994935;28;20054;-54
2021/11/15 01:17:50;;;;;;;53.45;27.08;;;7.90;99.90;;;;;;4993858;28;20396;-54
2021/11/15 01:20:21;;;;;;;48.33;25.58;;;7.90;99.90;;;;;;4995135;28;20045;-55
2021/11/15 01:22:47;;;;;;;58.50;27.48;;;7.90;99.90;;;;;;4994941;28;20038;-54
2021/11/15 01:25:13;;;;;;;54.65;26.38;;;7.90;99.90;;;;;;4994678;28;20042;-55
2021/11/15 01:27:39;;;;;;;55.38;27.02;;;7.90;99.90;;;;;;4994766;28;20057;-55
2021/11/15 01:30:10;;;;;;;57.95;26.35;;;7.90;99.90;;;;;;4995003;28;20038;-55
2021/11/15 01:32:37;;;;;;;52.72;26.75;;;7.90;99.90;;;;;;4994618;28;20034;-54
2021/11/15 01:35:03;;;;;;;59.65;27.17;;;7.80;99.90;;;;;;4994639;28;20049;-54
2021/11/15 01:37:29;;;;;;;54.33;26.30;;;7.80;99.90;;;;;;4994314;28;20077;-54
2021/11/15 01:39:55;;;;;;;56.38;27.48;;;7.80;99.90;;;;;;4993095;28;20093;-55
2021/11/15 01:42:21;;;;;;;53.92;26.52;;;7.70;99.90;;;;;;4994816;28;20038;-55
2021/11/15 01:44:47;;;;;;;58.35;28.95;;;7.70;99.90;;;;;;4994715;28;20428;-55
2021/11/15 01:47:12;;;;;;;53.15;27.30;;;7.80;99.90;;;;;;4994673;28;20057;-54
2021/11/15 01:49:38;;;;;;;56.92;29.25;;;7.80;99.90;;;;;;4994612;28;20038;-54
2021/11/15 01:52:04;;;;;;;56.42;27.75;;;7.70;99.90;;;;;;4994471;28;20045;-52
2021/11/15 01:54:30;;;;;;;51.08;27.25;;;7.80;99.90;;;;;;4994098;28;20034;-54
2021/11/15 01:56:56;;;;;;;61.53;28.58;;;7.80;99.90;;;;;;4994298;28;20043;-54
2021/11/15 01:59:22;;;;;;;63.78;29.48;;;7.70;99.90;;;;;;4992952;28;20100;-53
2021/11/15 02:01:48;;;;;;;58.72;29.00;;;7.70;99.90;;;;;;4994351;28;20042;-54
2021/11/15 02:04:14;;;;;;;61.25;28.88;;;7.70;99.90;;;;;;4994157;28;20069;-55
2021/11/15 02:06:40;;;;;;;64.72;28.30;;;7.70;99.90;;;;;;4994094;28;20377;-55
2021/11/15 02:09:06;;;;;;;59.50;28.42;;;7.70;99.90;;;;;;4993908;28;20042;-55
2021/11/15 02:11:33;;;;;;;64.03;28.90;;;7.70;99.90;;;;;;4994173;28;20052;-55
2021/11/15 02:14:01;;;;;;;62.38;29.20;;;7.60;99.90;;;;;;4993749;28;20069;-55
2021/11/15 02:16:28;;;;;;;57.90;27.75;;;7.60;99.90;;;;;;4993784;28;20484;-55
2021/11/15 02:18:54;;;;;;;64.60;29.08;;;7.60;99.90;;;;;;4992821;28;20118;-53
2021/11/15 02:21:20;;;;;;;64.35;28.35;;;7.60;99.90;;;;;;4993792;28;20132;-55
2021/11/15 02:23:46;;;;;;;60.63;27.65;;;7.60;99.90;;;;;;4993837;28;20214;-55
2021/11/15 02:26:15;;;;;;;60.30;27.38;;;7.60;99.90;;;;;;4994011;28;20042;-54
2021/11/15 02:28:44;;;;;;;54.05;25.63;;;7.50;99.90;;;;;;4993638;28;20536;-54
2021/11/15 02:31:13;;;;;;;56.83;25.80;;;7.50;99.90;;;;;;4993837;28;20447;-53
2021/11/15 02:33:38;;;;;;;;;;;7.50;99.90;;;;;;4993829;28;20519;-55
2021/11/15 02:36:06;;;;;;;60.97;26.48;;;7.50;99.90;;;;;;4993466;28;19932;-54
2021/11/15 02:38:33;;;;;;;62.15;25.80;;;7.50;99.90;;;;;;4993629;28;20042;-54
2021/11/15 02:40:59;;;;;;;53.75;25.02;;;7.40;99.90;;;;;;4993492;28;20034;-55
2021/11/15 02:43:25;;;;;;;51.70;24.65;;;7.50;99.90;;;;;;4993009;28;20544;-54
2021/11/15 02:45:51;;;;;;;52.30;23.95;;;7.40;99.90;;;;;;4993310;28;20065;-54
2021/11/15 02:48:22;;;;;;;54.83;24.52;;;7.40;99.90;;;;;;4993347;28;20044;-53
2021/11/15 02:50:49;;;;;;;51.88;24.27;;;7.40;99.90;;;;;;4993294;28;20049;-54
2021/11/15 02:53:15;;;;;;;55.90;24.70;;;7.40;99.90;;;;;;4993479;28;20046;-55
2021/11/15 02:55:43;;;;;;;51.80;24.15;;;7.40;99.90;;;;;;4993040;28;20042;-54
2021/11/15 02:58:09;;;;;;;52.88;22.23;;;7.30;99.90;;;;;;4993374;28;20043;-54
2021/11/15 03:00:40;;;;;;;51.80;24.00;;;7.30;99.90;;;;;;4993188;28;20397;-53
2021/11/15 03:03:07;;;;;;;50.90;23.95;;;7.30;99.90;;;;;;4993329;28;20100;-55
2021/11/15 03:05:36;;;;;;;55.90;24.80;;;7.30;99.90;;;;;;4979717;28;20066;-54
2021/11/15 03:08:04;;;;;;;50.92;23.85;;;7.30;99.90;;;;;;4973986;28;20042;-55
2021/11/15 03:10:30;;;;;;;50.55;22.40;;;7.30;99.90;;;;;;4973856;28;20058;-54
2021/11/15 03:12:57;;;;;;;53.92;22.65;;;7.40;99.90;;;;;;4973481;28;20492;-53
2021/11/15 03:15:41;;;;;;;46.83;22.20;;;7.40;99.90;;;;;;4973913;28;20425;-54
2021/11/15 03:18:18;;;;;;;49.85;22.60;;;7.30;99.90;;;;;;4973581;28;20527;-54
2021/11/15 03:20:47;;;;;;;41.42;22.05;;;7.40;99.90;;;;;;4973790;28;20114;-54
2021/11/15 03:23:17;;;;;;;47.33;21.98;;;7.30;99.90;;;;;;4956179;28;20043;-54
2021/11/15 03:25:43;;;;;;;49.47;22.45;;;7.40;99.90;;;;;;4973496;28;20085;-54
2021/11/15 03:28:11;;;;;;;45.25;20.63;;;7.30;99.90;;;;;;4973527;28;20046;-55
2021/11/15 03:30:37;;;;;;;42.08;21.10;;;7.40;99.90;;;;;;4973659;28;20042;-54
2021/11/15 03:33:03;;;;;;;43.00;20.33;;;7.30;99.90;;;;;;4973486;28;20137;-53
2021/11/15 03:35:29;;;;;;;50.13;22.25;;;7.40;99.90;;;;;;4973547;28;20054;-55
2021/11/15 03:37:55;;;;;;;40.58;19.75;;;7.40;99.90;;;;;;4973321;28;20038;-55
2021/11/15 03:40:24;;;;;;;43.95;20.05;;;7.30;99.90;;;;;;4973306;28;20077;-55
2021/11/15 03:42:55;;;;;;;40.03;20.23;;;7.30;99.90;;;;;;4973442;28;20043;-54
2021/11/15 03:45:22;;;;;;;46.67;21.55;;;7.30;99.90;;;;;;4973372;28;20508;-54
2021/11/15 03:47:48;;;;;;;49.55;22.98;;;7.30;99.90;;;;;;4973356;28;20439;-54
2021/11/15 03:50:15;;;;;;;47.20;21.30;;;7.30;99.90;;;;;;4973219;28;20077;-54
2021/11/15 03:52:42;;;;;;;53.10;24.15;;;7.20;99.90;;;;;;4973231;28;20457;-55
2021/11/15 03:55:10;;;;;;;54.45;23.45;;;7.30;99.90;;;;;;4973048;28;20089;-54
2021/11/15 03:57:37;;;;;;;54.33;24.90;;;7.20;99.90;;;;;;4977240;28;20047;-54
2021/11/15 04:00:07;;;;;;;54.50;27.27;;;7.20;99.90;;;;;;4976834;28;20420;-54
2021/11/15 04:02:33;;;;;;;67.82;30.90;;;7.20;99.90;;;;;;4977045;28;20039;-54
2021/11/15 04:05:04;;;;;;;65.10;29.45;;;7.10;99.90;;;;;;4977046;28;20410;-55
2021/11/15 04:07:49;;;;;;;63.70;30.70;;;7.10;99.90;;;;;;4976630;28;20555;-54
2021/11/15 04:10:26;;;;;;;68.57;31.98;;;7.10;99.90;;;;;;4976999;28;20105;-54
2021/11/15 04:12:54;;;;;;;74.35;32.97;;;7.10;99.90;;;;;;4976802;28;20047;-55
2021/11/15 04:15:20;;;;;;;71.13;31.88;;;7.10;99.90;;;;;;4976755;28;20051;-55
2021/11/15 04:17:46;;;;;;;79.57;34.08;;;7.20;99.90;;;;;;4976757;28;20037;-54
2021/11/15 04:20:16;;;;;;;73.30;31.27;;;7.10;99.90;;;;;;4976620;28;20126;-54
2021/11/15 04:22:42;;;;;;;87.80;35.50;;;7.10;99.90;;;;;;4976596;28;20038;-55
2021/11/15 04:25:09;;;;;;;80.05;35.10;;;7.10;99.90;;;;;;4976492;28;20130;-54
2021/11/15 04:27:35;;;;;;;87.82;36.65;;;7.10;99.90;;;;;;4976283;28;20049;-54
2021/11/15 04:30:03;;;;;;;86.20;35.80;;;7.10;99.90;;;;;;4976391;28;20555;-54
2021/11/15 04:32:28;;;;;;;86.32;35.45;;;7.10;99.90;;;;;;4975016;28;20567;-55
2021/11/15 04:34:54;;;;;;;80.03;34.53;;;7.20;99.90;;;;;;4978352;28;20043;-55
2021/11/15 04:37:20;;;;;;;87.97;36.22;;;7.20;99.90;;;;;;4976447;28;20042;-54
2021/11/15 04:39:46;;;;;;;84.32;36.28;;;7.20;99.90;;;;;;4976300;28;20042;-54
2021/11/15 04:42:12;;;;;;;86.13;34.53;;;7.20;99.90;;;;;;4976329;28;20046;-55
2021/11/15 04:44:37;;;;;;;82.30;35.55;;;7.20;99.90;;;;;;4976214;28;20392;-54
2021/11/15 04:47:04;;;;;;;83.97;35.75;;;7.20;99.90;;;;;;4976159;28;20048;-55
2021/11/15 04:49:29;;;;;;;88.68;36.00;;;7.20;99.90;;;;;;4976073;28;20432;-53
2021/11/15 04:51:55;;;;;;;83.35;34.53;;;7.20;99.90;;;;;;4975917;28;20038;-55
2021/11/15 04:54:21;;;;;;;81.78;34.20;;;7.20;99.90;;;;;;4975845;28;20085;-54
2021/11/15 04:56:47;;;;;;;79.40;33.00;;;7.10;99.90;;;;;;4976035;28;20034;-54
2021/11/15 04:59:13;;;;;;;81.60;35.58;;;7.20;99.90;;;;;;4975688;28;20042;-54
2021/11/15 05:01:39;;;;;;;79.65;31.85;;;7.20;99.90;;;;;;4975837;28;20043;-54
2021/11/15 05:04:04;;;;;;;83.75;34.50;;;7.20;99.90;;;;;;4975890;28;20039;-54
2021/11/15 05:06:30;;;;;;;79.60;34.38;;;7.20;99.90;;;;;;4975507;28;20511;-54
2021/11/15 05:08:56;;;;;;;95.15;35.05;;;7.20;99.90;;;;;;4974553;28;20401;-55
2021/11/15 05:11:22;;;;;;;89.57;34.92;;;7.20;99.90;;;;;;4975813;28;20043;-54
2021/11/15 05:13:47;;;;;;;83.35;34.92;;;7.20;99.90;;;;;;4974294;28;20105;-55
2021/11/15 05:16:13;;;;;;;91.55;34.50;;;7.20;99.90;;;;;;4975598;28;20158;-53
2021/11/15 05:18:39;;;;;;;79.35;33.78;;;7.20;99.90;;;;;;4975488;28;20054;-53
2021/11/15 05:21:04;;;;;;;84.07;35.80;;;7.20;99.90;;;;;;4975746;28;20378;-54
2021/11/15 05:23:30;;;;;;;87.68;37.40;;;7.10;99.90;;;;;;4975853;28;20452;-55
2021/11/15 05:25:56;;;;;;;80.60;34.00;;;7.10;99.90;;;;;;4975411;28;20062;-55
2021/11/15 05:28:22;;;;;;;87.55;35.50;;;7.10;99.90;;;;;;4975464;28;20043;-54
2021/11/15 05:30:48;;;;;;;84.82;36.10;;;7.00;99.90;;;;;;4975332;28;20039;-55
2021/11/15 05:33:14;;;;;;;85.35;35.10;;;7.10;99.90;;;;;;4975070;28;20031;-53
2021/11/15 05:35:40;;;;;;;81.82;36.70;;;7.00;99.90;;;;;;4975328;28;20109;-53
2021/11/15 05:38:06;;;;;;;94.82;36.30;;;7.00;99.90;;;;;;4975287;28;20035;-55
2021/11/15 05:40:32;;;;;;;86.68;35.50;;;7.00;99.90;;;;;;4975342;28;20035;-54
2021/11/15 05:42:58;;;;;;;81.85;33.95;;;7.00;99.90;;;;;;4975169;28;20042;-55
2021/11/15 05:45:26;;;;;;;69.13;27.77;;;7.10;99.90;;;;;;4975057;28;20039;-53
2021/11/15 05:47:52;;;;;;;71.78;28.75;;;7.10;99.90;;;;;;4975045;28;20042;-53
2021/11/15 05:50:20;;;;;;;71.30;28.65;;;7.00;99.90;;;;;;4975226;28;20051;-53
2021/11/15 05:52:46;;;;;;;72.05;28.42;;;7.00;99.90;;;;;;4975237;28;20038;-54
2021/11/15 05:55:17;;;;;;;64.55;25.73;;;7.00;99.90;;;;;;4975063;28;20050;-54
2021/11/15 05:57:43;;;;;;;65.10;27.52;;;7.00;99.90;;;;;;4993791;28;20043;-55
2021/11/15 06:00:12;;;;;;;68.25;27.20;;;7.00;99.90;;;;;;4993675;28;20125;-54
2021/11/15 06:02:38;;;;;;;63.28;26.05;;;7.00;99.90;;;;;;4994105;28;20039;-54
2021/11/15 06:05:05;;;;;;;70.63;27.88;;;6.90;99.90;;;;;;4994256;28;20053;-54
2021/11/15 06:07:30;;;;;;;69.55;26.70;;;6.90;99.90;;;;;;4994190;28;20046;-54
2021/11/15 06:09:56;;;;;;;67.20;26.88;;;6.90;99.90;;;;;;4993711;28;20377;-55
2021/11/15 06:12:22;;;;;;;73.85;26.80;;;6.90;99.90;;;;;;4993977;28;20052;-54
2021/11/15 06:14:48;;;;;;;75.15;27.60;;;6.90;99.90;;;;;;4993693;28;20069;-54
2021/11/15 06:17:15;;;;;;;66.95;27.58;;;6.90;99.90;;;;;;4993994;28;20046;-55
2021/11/15 06:19:41;;;;;;;66.53;26.58;;;6.90;99.90;;;;;;4993213;28;20399;-54
2021/11/15 06:22:07;;;;;;;65.35;25.90;;;7.00;99.90;;;;;;4993592;28;20392;-55
2021/11/15 06:24:33;;;;;;;64.07;26.98;;;7.00;99.90;;;;;;4993647;28;20045;-54
2021/11/15 06:26:58;;;;;;;67.28;24.85;;;7.00;99.90;;;;;;4993697;28;20061;-55
2021/11/15 06:29:24;;;;;;;63.85;24.90;;;7.00;99.90;;;;;;4993847;28;20050;-54
2021/11/15 06:31:50;;;;;;;70.80;25.95;;;7.00;99.90;;;;;;4993708;28;20046;-55
2021/11/15 06:34:15;;;;;;;65.80;25.25;;;7.00;99.90;;;;;;4993554;28;20046;-55
2021/11/15 06:36:41;;;;;;;64.20;24.27;;;7.00;99.90;;;;;;4986672;28;20050;-54
2021/11/15 06:39:07;;;;;;;60.60;23.88;;;7.00;99.90;;;;;;4974229;28;20038;-53
2021/11/15 06:41:33;;;;;;;55.97;23.95;;;6.90;99.90;;;;;;4974261;28;20043;-54
2021/11/15 06:43:58;;;;;;;62.72;23.85;;;6.90;99.90;;;;;;4974040;28;20330;-55
2021/11/15 06:46:26;;;;;;;55.90;23.17;;;7.00;99.90;;;;;;4987404;28;20101;-54
2021/11/15 06:48:52;;;;;;;54.17;22.08;;;7.00;99.90;;;;;;4993413;28;20089;-53
2021/11/15 06:51:18;;;;;;;57.42;22.70;;;7.10;99.90;;;;;;4993431;28;20484;-55
2021/11/15 06:53:45;;;;;;;59.50;21.67;;;7.00;99.90;;;;;;4993373;28;20078;-54
2021/11/15 06:56:11;;;;;;;59.15;21.25;;;7.00;99.90;;;;;;4992096;28;20038;-54
2021/11/15 06:58:36;;;;;;;56.20;21.23;;;7.00;99.90;;;;;;4993225;28;20041;-54
2021/11/15 07:01:03;;;;;;;52.95;20.95;;;7.00;99.90;;;;;;4992722;28;20038;-54
2021/11/15 07:03:29;;;;;;;47.67;20.27;;;7.00;99.90;;;;;;4991709;28;20096;-55
2021/11/15 07:05:54;;;;;;;53.80;22.77;;;7.00;99.90;;;;;;4993330;28;20042;-54
2021/11/15 07:08:20;;;;;;;47.25;18.75;;;7.00;99.90;;;;;;4992801;28;20050;-55
2021/11/15 07:10:46;;;;;;;44.55;18.10;;;6.90;99.90;;;;;;4992872;28;20045;-54
2021/11/15 07:13:15;;;;;;;40.40;17.50;;;6.90;99.90;;;;;;4992979;28;20516;-53
2021/11/15 07:15:42;;;;;;;47.95;17.73;;;6.90;99.90;;;;;;4992650;28;20056;-55
2021/11/15 07:18:08;;;;;;;42.30;17.45;;;6.90;99.90;;;;;;4993047;28;20039;-53
2021/11/15 07:20:34;;;;;;;40.60;17.42;;;6.90;99.90;;;;;;4991862;28;20046;-55
2021/11/15 07:23:00;;;;;;;45.38;17.55;;;6.90;99.90;;;;;;4993107;28;20053;-53
2021/11/15 07:25:25;;;;;;;45.33;18.23;;;6.90;99.90;;;;;;4992833;28;20038;-54
2021/11/15 07:27:54;;;;;;;44.30;18.38;;;6.90;99.90;;;;;;4992981;28;20081;-54
2021/11/15 07:30:20;;;;;;;46.92;19.15;;;6.90;99.90;;;;;;4994700;28;20573;-54
2021/11/15 07:32:47;;;;;;;45.03;17.40;;;6.90;99.90;;;;;;4996433;28;20484;-55
2021/11/15 07:35:13;;;;;;;42.05;18.17;;;6.90;99.90;;;;;;4996571;28;20434;-54
2021/11/15 07:37:39;;;;;;;56.47;18.52;;;6.90;99.90;;;;;;4996859;28;20042;-55
2021/11/15 07:40:08;;;;;;;49.30;19.85;;;7.00;99.90;;;;;;4996797;28;20173;-53
2021/11/15 07:42:35;;;;;;;50.92;19.25;;;7.00;99.90;;;;;;4996600;28;20453;-55
2021/11/15 07:45:02;;;;;;;52.63;20.70;;;7.00;99.90;;;;;;4996937;28;20042;-55
2021/11/15 07:47:27;;;;;;;48.13;18.25;;;7.00;99.90;;;;;;4996132;28;20117;-55
2021/11/15 07:49:53;;;;;;;47.97;18.77;;;7.00;99.90;;;;;;4996360;28;20121;-54
2021/11/15 07:52:19;;;;;;;53.00;21.20;;;6.90;99.90;;;;;;4996656;28;20387;-54
2021/11/15 07:54:46;;;;;;;54.45;20.52;;;7.00;99.90;;;;;;4996417;28;20395;-55
2021/11/15 07:57:12;;;;;;;42.47;17.15;;;7.00;99.90;;;;;;4996580;28;20065;-54
2021/11/15 07:59:38;;;;;;;37.47;13.73;;;6.90;99.90;;;;;;4996085;28;20041;-54
2021/11/15 08:02:05;;;;;;;39.42;14.85;;;6.90;99.90;;;;;;4995881;28;20136;-55
2021/11/15 08:04:31;;;;;;;39.53;14.60;;;6.90;99.90;;;;;;4996434;28;20062;-55
2021/11/15 08:06:58;;;;;;;40.00;15.40;;;6.90;99.90;;;;;;4996261;28;20050;-54
2021/11/15 08:09:23;;;;;;;39.47;16.00;;;6.90;99.90;;;;;;4996333;28;20042;-54
2021/11/15 08:11:52;;;;;;;45.05;16.75;;;6.80;99.90;;;;;;4996295;28;20038;-55
2021/11/15 08:14:18;;;;;;;46.63;17.20;;;6.90;99.90;;;;;;4995915;28;20058;-55
2021/11/15 08:16:46;;;;;;;42.25;16.15;;;6.90;99.90;;;;;;4995968;28;20125;-53
2021/11/15 08:19:14;;;;;;;51.53;17.33;;;6.80;99.90;;;;;;4996282;28;20038;-54
2021/11/15 08:21:39;;;;;;;40.58;16.02;;;6.90;99.90;;;;;;4996019;28;20073;-54
2021/11/15 08:24:17;;;;;;;42.67;16.02;;;6.80;99.90;;;;;;4996066;28;20042;-55
2021/11/15 08:26:57;;;;;;;44.60;17.00;;;6.80;99.90;;;;;;4995968;28;20046;-54
2021/11/15 08:29:25;;;;;;;43.20;16.63;;;6.80;99.90;;;;;;4995859;28;20495;-54
2021/11/15 08:31:53;;;;;;;34.10;12.98;;;6.80;99.90;;;;;;4995695;28;20045;-54
2021/11/15 08:34:20;;;;;;;34.28;13.40;;;6.80;99.90;;;;;;4995549;28;20057;-54
2021/11/15 08:36:47;;;;;;;30.25;11.35;;;6.80;99.90;;;;;;4995817;28;20034;-55
2021/11/15 08:39:26;;;;;;;38.58;14.38;;;6.70;99.90;;;;;;4995137;28;20031;-54
2021/11/15 08:41:57;;;;;;;32.55;13.90;;;6.70;99.90;;;;;;4994576;28;20030;-55
2021/11/15 08:44:26;;;;;;;36.20;13.52;;;6.80;99.90;;;;;;4995481;28;20394;-53
2021/11/15 08:46:53;;;;;;;34.60;13.57;;;6.70;99.90;;;;;;4995062;28;20044;-55
2021/11/15 08:49:21;;;;;;;34.08;13.48;;;6.80;99.90;;;;;;4995596;28;20788;-54
2021/11/15 08:51:48;;;;;;;37.50;13.60;;;6.80;99.90;;;;;;4995244;28;20392;-55
2021/11/15 08:54:16;;;;;;;32.17;12.77;;;6.70;99.90;;;;;;4995386;28;20053;-54
2021/11/15 08:56:47;;;;;;;37.85;13.65;;;6.70;99.90;;;;;;4995399;28;20392;-55
2021/11/15 08:59:13;;;;;;;34.33;13.10;;;6.70;99.90;;;;;;4994933;28;20480;-53
2021/11/15 09:01:40;;;;;;;29.73;13.52;;;6.80;99.90;;;;;;4995028;28;20676;-55
2021/11/15 09:04:08;;;;;;;31.23;12.65;;;6.70;99.90;;;;;;4995375;28;20038;-54
2021/11/15 09:06:35;;;;;;;32.42;12.20;;;6.70;99.90;;;;;;4995358;28;20050;-54
2021/11/15 09:09:03;;;;;;;30.60;12.63;;;6.80;99.90;;;;;;4995232;28;20038;-55
2021/11/15 09:11:29;;;;;;;26.42;11.68;;;6.70;99.90;;;;;;4995068;28;20053;-54
2021/11/15 09:13:56;;;;;;;34.92;13.00;;;6.80;99.90;;;;;;4994116;28;20137;-53
2021/11/15 09:16:21;;;;;;;32.15;13.32;;;6.70;99.90;;;;;;4980175;28;20480;-53
2021/11/15 09:18:47;;;;;;;28.67;12.32;;;6.70;99.90;;;;;;4995207;28;20073;-55
2021/11/15 09:21:14;;;;;;;28.42;12.07;;;6.70;99.90;;;;;;4994468;28;20472;-55
2021/11/15 09:23:42;;;;;;;31.38;11.88;;;6.80;99.90;;;;;;4994685;28;20042;-60
2021/11/15 09:26:15;;;;;;;28.13;12.43;;;6.80;99.90;;;;;;4994319;28;20046;-60
2021/11/15 09:28:41;;;;;;;31.15;13.30;;;6.80;99.90;;;;;;4992156;28;20411;-59
2021/11/15 09:31:09;;;;;;;33.20;12.60;;;6.80;99.90;;;;;;4992994;28;20112;-60
2021/11/15 09:33:35;;;;;;;31.83;13.52;;;6.80;99.90;;;;;;4994328;28;20126;-60
2021/11/15 09:36:01;;;;;;;31.50;12.35;;;6.80;99.90;;;;;;4994092;28;20046;-59
2021/11/15 09:38:28;;;;;;;31.52;11.95;;;6.70;99.90;;;;;;4994278;28;20450;-58
2021/11/15 09:41:02;;;;;;;27.17;12.32;;;6.80;99.90;;;;;;4993808;28;20377;-58
2021/11/15 09:43:34;;;;;;;26.75;11.15;;;6.70;99.90;;;;;;4994448;28;20038;-59
2021/11/15 09:46:06;;;;;;;31.63;12.43;;;6.70;99.90;;;;;;4994446;28;20050;-60
2021/11/15 09:48:38;;;;;;;28.85;13.20;;;6.70;99.90;;;;;;4994023;28;20042;-60
2021/11/15 09:51:06;;;;;;;31.20;12.73;;;6.70;99.90;;;;;;4994062;28;20074;-59
2021/11/15 09:53:32;;;;;;;31.73;14.40;;;6.80;99.90;;;;;;4992843;28;20057;-60
2021/11/15 09:55:59;;;;;;;30.85;12.85;;;6.80;99.90;;;;;;4994135;28;20038;-60
2021/11/15 09:58:26;;;;;;;31.83;12.27;;;6.90;99.90;;;;;;4993972;28;20038;-61
2021/11/15 10:00:52;;;;;;;27.60;12.05;;;6.90;99.90;;;;;;4993526;28;20038;-59
2021/11/15 10:03:18;;;;;;;28.80;11.77;;;6.80;99.90;;;;;;4993604;28;20030;-60
2021/11/15 10:05:45;;;;;;;28.45;11.70;;;6.90;99.90;;;;;;4993604;28;20030;-60
2021/11/15 10:08:12;;;;;;;26.60;12.38;;;6.80;99.90;;;;;;4993590;28;20038;-60
2021/11/15 10:10:56;;;;;;;24.95;11.93;;;6.90;99.90;;;;;;4993635;28;20108;-60
2021/11/15 10:13:31;;;;;;;31.75;12.00;;;6.80;99.90;;;;;;4993104;28;20096;-60
2021/11/15 10:16:00;;;;;;;27.42;10.85;;;6.80;99.90;;;;;;4993554;28;20125;-60
2021/11/15 10:18:39;;;;;;;28.30;11.48;;;6.80;99.90;;;;;;4993192;28;20043;-60
2021/11/15 10:21:13;;;;;;;24.20;10.30;;;6.80;99.90;;;;;;4993585;28;20374;-60
2021/11/15 10:23:48;;;;;;;27.60;10.85;;;6.80;99.90;;;;;;4993513;28;20057;-60
2021/11/15 10:26:29;;;;;;;25.13;10.27;;;6.80;99.90;;;;;;4993572;28;20042;-60
2021/11/15 10:28:59;;;;;;;23.20;9.82;;;6.80;99.90;;;;;;4993098;28;20088;-60
2021/11/15 10:31:40;;;;;;;22.05;9.57;;;6.80;99.90;;;;;;4990315;28;20042;-61
2021/11/15 10:34:10;;;;;;;21.95;8.90;;;6.80;99.90;;;;;;4991464;28;20038;-61
2021/11/15 10:36:58;;;;;;;15.35;7.40;;;6.80;99.90;;;;;;4993106;28;20091;-60
2021/11/15 10:39:29;;;;;;;16.85;8.23;;;6.80;99.90;;;;;;4992959;28;20039;-61
2021/11/15 10:42:00;;;;;;;20.20;8.10;;;6.80;99.90;;;;;;4992569;28;20038;-60
2021/11/15 10:44:28;;;;;;;14.73;7.20;;;6.80;99.90;;;;;;4992792;28;20534;-60
2021/11/15 10:46:54;;;;;;;15.75;7.45;;;6.80;99.90;;;;;;4993206;28;20046;-60
2021/11/15 10:49:24;;;;;;;15.88;6.53;;;6.80;99.90;;;;;;4993101;28;20042;-60
2021/11/15 10:51:53;;;;;;;17.85;8.50;;;6.80;99.90;;;;;;4992699;28;20451;-60
2021/11/15 10:57:29;;;;;;;15.88;8.10;;;6.80;99.90;;;;;;4973447;28;20397;-60
2021/11/15 11:00:04;;;;;;;20.23;9.13;;;6.80;99.90;;;;;;4988767;28;20038;-61
2021/11/15 11:02:32;;;;;;;12.57;6.55;;;6.80;99.90;;;;;;4992771;28;20034;-60
2021/11/15 11:05:19;;;;;;;12.38;7.07;;;6.80;99.90;;;;;;4992225;28;20049;-60
2021/11/15 11:08:05;;;;;;;17.35;7.70;;;6.70;99.90;;;;;;4992657;28;20503;-60
2021/11/15 11:10:38;;;;;;;17.13;7.95;;;6.80;99.90;;;;;;4992511;28;20097;-60
2021/11/15 11:13:04;;;;;;;21.50;9.23;;;6.80;99.90;;;;;;4992455;28;20113;-61
2021/11/15 11:26:32;;;;;;;41.25;17.30;;;6.60;99.90;;;;;;4992708;28;20100;-60
2021/11/15 11:29:14;;;;;;;45.28;17.73;;;6.60;99.90;;;;;;4992390;28;20113;-60
2021/11/15 11:31:44;;;;;;;44.55;18.00;;;6.70;99.90;;;;;;4992196;28;20094;-60
2021/11/15 11:34:10;;;;;;;50.58;19.17;;;6.70;99.90;;;;;;4992252;28;20042;-60
2021/11/15 11:36:37;;;;;;;54.80;21.48;;;6.60;99.90;;;;;;4992456;28;20549;-60
2021/11/15 11:39:08;;;;;;;54.58;22.15;;;6.60;99.90;;;;;;4992313;28;20836;-60
2021/11/15 11:41:35;;;;;;;52.78;22.90;;;6.60;99.90;;;;;;4992190;28;20042;-60
2021/11/15 11:44:03;;;;;;;59.13;23.85;;;6.50;99.90;;;;;;4992173;28;20034;-60
2021/11/15 11:46:29;;;;;;;58.00;25.40;;;6.60;99.90;;;;;;4992207;28;20494;-60
2021/11/15 11:48:56;;;;;;;63.15;25.50;;;6.50;99.90;;;;;;4991402;28;20031;-60
2021/11/15 11:51:24;;;;;;;62.25;26.20;;;6.60;99.90;;;;;;4992050;28;20045;-60
2021/11/15 11:54:15;;;;;;;68.97;27.35;;;6.60;99.90;;;;;;4991935;28;20122;-61
2021/11/15 11:56:56;;;;;;;63.83;27.35;;;6.60;99.90;;;;;;4992418;28;20047;-60
2021/11/15 11:59:24;;;;;;;72.22;29.77;;;6.60;99.90;;;;;;4992432;28;20103;-60
2021/11/15 12:02:01;;;;;;;72.95;28.60;;;6.60;99.90;;;;;;4992254;28;20038;-60
2021/11/15 12:04:27;;;;;;;75.65;31.05;;;6.60;99.90;;;;;;4992211;28;20061;-60
2021/11/15 12:06:54;;;;;;;84.85;32.58;;;6.60;99.90;;;;;;4991962;28;20473;-60
2021/11/15 12:09:24;;;;;;;86.05;32.05;;;6.60;99.90;;;;;;4992238;28;20042;-60
2021/11/15 12:12:00;;;;;;;83.30;32.72;;;6.60;99.90;;;;;;4991779;28;20500;-60
2021/11/15 12:14:35;;;;;;;77.32;32.40;;;6.60;99.90;;;;;;4991621;28;20432;-60
2021/11/15 12:17:06;;;;;;;81.97;32.58;;;6.60;99.90;;;;;;4992983;28;20046;-60
2021/11/15 12:20:01;;;;;;;89.57;33.55;;;6.60;99.90;;;;;;4995501;28;20042;-60
2021/11/15 12:22:38;;;;;;;81.88;32.65;;;6.60;99.90;;;;;;4995869;28;20086;-61
2021/11/15 12:25:04;;;;;;;86.57;33.08;;;6.70;99.90;;;;;;4995514;28;20056;-60
2021/11/15 12:27:49;;;;;;;77.38;33.40;;;6.70;99.90;;;;;;4995528;28;20129;-60
2021/11/15 12:30:42;;;;;;;87.22;33.30;;;6.70;99.90;;;;;;4975795;28;20497;-60
2021/11/15 12:33:18;;;;;;;75.35;33.55;;;6.70;99.90;;;;;;4976013;28;20396;-60
2021/11/15 12:36:10;;;;;;;80.28;31.67;;;6.60;99.90;;;;;;4976010;28;20105;-60
2021/11/15 12:38:47;;;;;;;82.18;33.47;;;6.60;99.90;;;;;;4975867;28;20042;-60
2021/11/15 12:41:25;;;;;;;78.65;33.45;;;6.60;99.90;;;;;;4975868;28;20047;-60
2021/11/15 12:44:00;;;;;;;80.30;32.13;;;6.60;99.90;;;;;;4975553;28;20516;-60
2021/11/15 12:46:45;;;;;;;80.35;32.55;;;6.60;99.90;;;;;;4975641;28;20177;-60
2021/11/15 12:49:36;;;;;;;76.65;32.65;;;6.60;99.90;;;;;;4974976;28;20069;-61
2021/11/15 12:52:09;;;;;;;76.13;30.98;;;6.60;99.90;;;;;;4975061;28;20074;-60
2021/11/15 12:54:40;;;;;;;73.57;30.83;;;6.60;99.90;;;;;;4975499;28;20050;-60
2021/11/15 12:57:11;;;;;;;73.00;29.05;;;6.60;99.90;;;;;;4975656;28;20039;-60
2021/11/15 12:59:39;;;;;;;77.53;32.42;;;6.60;99.90;;;;;;4975427;28;20035;-61